Time;durP1;ratioP1;P1;durP2;ratioP2;P2;SDS_P1;SDS_P2;PMS_P1;PMS_P2;Temp;Humidity;BMP_temperature;BMP_pressure;BME280_temperature;BME280_humidity;BME280_pressure;Samples;Min_cycle;Max_cycle;Signal;HPM_P1;HPM_P2
2022/09/03 00:00:13;;;;;;;4.60;1.90;;;;;;;16.37;37.50;99826.23;25037;1313;3055757;-60
2022/09/03 00:02:58;;;;;;;2.80;1.50;;;;;;;16.37;37.40;99819.40;25163;1313;3026612;-60
2022/09/03 00:05:42;;;;;;;3.70;1.90;;;;;;;16.36;37.56;99824.92;25068;1316;3052142;-59
2022/09/03 00:08:23;;;;;;;6.90;1.50;;;;;;;16.27;37.74;99819.77;25096;1313;3056556;-60
2022/09/03 00:11:16;;;;;;;6.60;1.90;;;;;;;16.20;37.75;99825.84;25038;1316;3054202;-59
2022/09/03 00:14:08;;;;;;;2.30;1.50;;;;;;;16.11;37.96;99833.05;25096;1313;3072039;-61
2022/09/03 00:16:43;;;;;;;7.90;1.60;;;;;;;16.17;37.74;99835.96;25127;1313;3048289;-60
2022/09/03 00:19:16;;;;;;;5.30;1.70;;;;;;;16.16;37.95;99840.76;25059;1313;3052129;-60
2022/09/03 00:21:48;;;;;;;9.30;2.20;;;;;;;16.09;38.42;99850.48;25112;1316;3026635;-60
2022/09/03 00:24:19;;;;;;;5.70;2.00;;;;;;;16.04;38.62;99852.17;25074;1315;3026394;-60
2022/09/03 00:26:53;;;;;;;6.20;1.60;;;;;;;16.02;38.95;99849.64;25100;1316;3027778;-60
2022/09/03 00:29:24;;;;;;;5.60;1.50;;;;;;;16.01;39.03;99857.47;25096;1315;3055260;-62
2022/09/03 00:31:57;;;;;;;5.40;2.00;;;;;;;15.98;39.11;99857.54;25094;1315;3026147;-60
2022/09/03 00:34:33;;;;;;;4.10;2.00;;;;;;;15.94;39.39;99856.09;25045;1316;3067584;-60
2022/09/03 00:37:02;;;;;;;7.00;1.80;;;;;;;15.96;39.06;99857.35;25139;1315;3049335;-60
2022/09/03 00:39:31;;;;;;;5.80;1.80;;;;;;;15.98;39.17;99856.52;25095;1316;3026447;-59
2022/09/03 00:42:25;;;;;;;6.20;1.60;;;;;;;15.94;39.34;99858.92;25052;1315;3026684;-60
2022/09/03 00:45:08;;;;;;;6.10;1.40;;;;;;;15.92;39.15;99861.00;25054;1316;3051184;-60
2022/09/03 00:47:44;;;;;;;6.70;2.20;;;;;;;15.87;39.44;99860.70;25104;1316;3054781;-62
2022/09/03 00:50:38;;;;;;;4.90;1.70;;;;;;;15.85;39.49;99865.25;25058;1316;3054294;-60
2022/09/03 00:53:55;;;;;;;3.80;1.60;;;;;;;15.81;39.74;99868.20;25127;1316;3056833;-59
2022/09/03 00:56:45;;;;;;;3.60;1.60;;;;;;;15.74;39.71;99866.42;25037;1316;3049704;-64
2022/09/03 00:59:36;;;;;;;4.30;1.90;;;;;;;15.75;39.54;99872.47;25119;1315;3053776;-60
2022/09/03 01:02:29;;;;;;;3.00;1.70;;;;;;;15.75;39.56;99871.80;25078;1316;3054588;-59
2022/09/03 01:05:58;;;;;;;4.80;1.30;;;;;;;15.77;39.68;99867.25;25016;1315;3067932;-59
2022/09/03 01:08:31;;;;;;;6.00;2.10;;;;;;;15.68;39.72;99863.38;24887;1321;3049346;-59
2022/09/03 01:11:18;;;;;;;3.10;1.50;;;;;;;15.64;39.77;99867.14;25121;1315;3026645;-59
2022/09/03 01:13:53;;;;;;;7.10;2.00;;;;;;;15.69;39.49;99876.88;25140;1316;3054888;-59
2022/09/03 01:16:52;;;;;;;6.30;1.70;;;;;;;15.61;39.70;99876.76;25145;1316;3055886;-58
2022/09/03 01:19:37;;;;;;;10.00;1.90;;;;;;;15.58;39.83;99881.54;25150;1313;3049340;-61
2022/09/03 01:22:40;;;;;;;4.00;1.70;;;;;;;15.53;40.08;99879.08;25157;1313;3055249;-61
2022/09/03 01:25:35;;;;;;;3.80;2.00;;;;;;;15.52;40.24;99870.37;25087;1313;3054461;-62
2022/09/03 01:28:18;;;;;;;4.30;1.70;;;;;;;15.38;40.65;99869.45;25051;1313;3070854;-60
2022/09/03 01:31:10;;;;;;;4.10;1.70;;;;;;;15.34;40.60;99880.84;25160;1313;3049566;-61
2022/09/03 01:33:47;;;;;;;4.50;1.80;;;;;;;15.31;40.89;99875.46;25078;1313;3055792;-62
2022/09/03 01:36:31;;;;;;;5.20;1.80;;;;;;;15.31;40.63;99868.00;25048;1313;3053617;-61
2022/09/03 01:39:02;;;;;;;2.60;1.50;;;;;;;15.21;41.16;99862.74;25074;1313;3058858;-60
2022/09/03 01:42:25;;;;;;;6.30;2.00;;;;;;;15.20;41.39;99857.90;25116;1313;3027290;-60
2022/09/03 01:45:00;;;;;;;4.60;1.80;;;;;;;15.20;41.13;99861.73;25057;1313;3053253;-60
2022/09/03 01:47:38;;;;;;;3.00;1.50;;;;;;;15.21;41.17;99862.23;25115;1313;3054680;-59
2022/09/03 01:50:28;;;;;;;4.30;1.80;;;;;;;15.20;41.30;99859.27;25094;1313;3071409;-60
2022/09/03 01:53:17;;;;;;;2.90;1.70;;;;;;;15.17;41.33;99854.56;25073;1313;3052013;-59
2022/09/03 01:56:24;;;;;;;3.40;1.60;;;;;;;15.16;41.39;99850.73;25042;1313;3055203;-61
2022/09/03 01:59:01;;;;;;;6.00;1.80;;;;;;;15.18;41.37;99860.46;25098;1313;3055465;-60
2022/09/03 02:01:38;;;;;;;5.60;1.80;;;;;;;15.16;41.43;99856.02;25044;1313;3056570;-61
2022/09/03 02:04:34;;;;;;;5.20;1.70;;;;;;;15.09;41.55;99857.45;25109;1313;3050141;-60
2022/09/03 02:07:04;;;;;;;4.40;1.80;;;;;;;15.08;41.30;99855.55;25096;1313;3055532;-60
2022/09/03 02:09:33;;;;;;;4.70;1.70;;;;;;;15.10;40.88;99853.15;25105;1313;3027041;-62
2022/09/03 02:12:07;;;;;;;4.30;1.70;;;;;;;15.10;41.23;99853.69;25049;1313;3029398;-60
2022/09/03 02:14:39;;;;;;;3.50;1.60;;;;;;;15.04;41.39;99857.29;25140;1313;3057322;-58
2022/09/03 02:17:08;;;;;;;6.30;1.70;;;;;;;14.99;41.62;99853.05;25082;1313;3026508;-59
2022/09/03 02:19:38;;;;;;;5.00;1.60;;;;;;;14.97;41.67;99855.90;25054;1316;3049698;-59
2022/09/03 02:22:07;;;;;;;4.20;1.60;;;;;;;15.00;41.48;99854.79;25080;1313;3026595;-60
2022/09/03 02:24:36;;;;;;;4.20;1.70;;;;;;;15.02;41.68;99853.04;25026;1313;3056987;-60
2022/09/03 02:27:08;;;;;;;3.30;1.90;;;;;;;14.96;41.63;99856.42;25087;1313;3026298;-61
2022/09/03 02:29:38;;;;;;;3.90;1.50;;;;;;;14.90;41.63;99862.39;25127;1313;3027262;-60
2022/09/03 02:32:07;;;;;;;3.90;1.80;;;;;;;14.87;41.59;99860.80;25045;1313;3026369;-60
2022/09/03 02:34:36;;;;;;;3.80;1.80;;;;;;;14.85;41.42;99869.08;25119;1313;3051268;-60
2022/09/03 02:37:15;;;;;;;4.50;1.40;;;;;;;14.82;41.48;99870.20;25050;1313;3026753;-59
2022/09/03 02:39:44;;;;;;;3.10;1.40;;;;;;;14.83;41.26;99869.00;25126;1313;3057292;-59
2022/09/03 02:42:14;;;;;;;4.00;1.70;;;;;;;14.89;41.06;99870.36;25098;1313;3026932;-59
2022/09/03 02:44:52;;;;;;;3.20;1.90;;;;;;;14.88;41.16;99876.99;25085;1313;3026134;-60
2022/09/03 02:47:22;;;;;;;8.50;2.00;;;;;;;14.87;41.04;99878.11;25109;1313;3054929;-61
2022/09/03 02:49:51;;;;;;;6.00;1.60;;;;;;;14.83;41.22;99878.73;25034;1313;3026621;-60
2022/09/03 02:52:20;;;;;;;5.20;1.70;;;;;;;14.77;41.28;99868.56;25093;1313;3054813;-59
2022/09/03 02:54:49;;;;;;;4.10;1.70;;;;;;;14.82;41.06;99867.91;25076;1313;3026759;-59
2022/09/03 02:57:18;;;;;;;3.50;1.60;;;;;;;14.75;41.30;99867.17;25093;1313;3052273;-59
2022/09/03 02:59:47;;;;;;;6.00;1.60;;;;;;;14.78;40.91;99870.98;25048;1312;3026439;-61
2022/09/03 03:02:16;;;;;;;7.00;1.80;;;;;;;14.81;40.80;99871.30;25126;1313;3058706;-59
2022/09/03 03:04:45;;;;;;;3.70;1.60;;;;;;;14.83;40.67;99863.71;25070;1313;3026001;-59
2022/09/03 03:07:14;;;;;;;3.50;1.50;;;;;;;14.86;40.75;99861.59;25096;1313;3026018;-60
2022/09/03 03:09:44;;;;;;;7.90;1.60;;;;;;;14.84;40.66;99865.80;25114;1313;3058579;-59
2022/09/03 03:12:16;;;;;;;3.80;1.30;;;;;;;14.82;40.82;99879.52;25076;1313;3027341;-61
2022/09/03 03:14:45;;;;;;;4.90;1.40;;;;;;;14.85;40.81;99878.73;25082;1313;3054358;-60
2022/09/03 03:17:15;;;;;;;3.20;1.60;;;;;;;14.84;41.01;99869.48;25063;1313;3026360;-60
2022/09/03 03:19:44;;;;;;;6.50;1.60;;;;;;;14.75;40.96;99868.20;25084;1313;3026478;-60
2022/09/03 03:22:13;;;;;;;7.20;1.90;;;;;;;14.79;41.03;99861.61;25063;1313;3054062;-59
2022/09/03 03:24:43;;;;;;;6.40;1.40;;;;;;;14.83;41.03;99863.76;25039;1313;3026880;-60
2022/09/03 03:27:13;;;;;;;6.30;1.70;;;;;;;14.84;40.96;99876.20;25093;1312;3026734;-61
2022/09/03 03:29:42;;;;;;;9.00;2.10;;;;;;;14.90;41.21;99881.94;25082;1313;3027183;-58
2022/09/03 03:32:11;;;;;;;8.40;1.80;;;;;;;14.95;41.31;99884.39;25108;1313;3026425;-59
2022/09/03 03:34:40;;;;;;;4.30;1.70;;;;;;;14.95;41.53;99888.61;25035;1313;3049214;-60
2022/09/03 03:37:09;;;;;;;3.10;1.70;;;;;;;14.89;41.54;99895.23;25147;1313;3026432;-59
2022/09/03 03:39:39;;;;;;;5.20;1.70;;;;;;;14.83;41.93;99893.01;25054;1313;3058137;-60
2022/09/03 03:42:08;;;;;;;5.30;2.30;;;;;;;14.74;42.21;99895.76;25130;1313;3026192;-59
2022/09/03 03:44:37;;;;;;;5.20;1.70;;;;;;;14.70;42.31;99898.20;25063;1313;3054264;-61
2022/09/03 03:47:07;;;;;;;4.50;1.60;;;;;;;14.79;41.84;99905.48;25032;1313;3028018;-60
2022/09/03 03:49:36;;;;;;;3.60;1.50;;;;;;;14.85;41.79;99907.68;25145;1313;3026210;-60
2022/09/03 03:52:04;;;;;;;4.60;1.50;;;;;;;14.86;42.00;99912.38;25037;1313;3054908;-60
2022/09/03 03:54:33;;;;;;;8.90;2.00;;;;;;;14.89;41.85;99913.91;25080;1313;3026601;-60
2022/09/03 03:57:03;;;;;;;5.20;1.70;;;;;;;14.85;42.01;99919.52;25081;1313;3055890;-59
2022/09/03 03:59:32;;;;;;;7.30;1.90;;;;;;;14.91;41.82;99912.23;25092;1313;3026963;-61
2022/09/03 04:02:01;;;;;;;6.00;1.70;;;;;;;14.97;41.50;99919.02;25099;1313;3026485;-60
2022/09/03 04:04:30;;;;;;;10.50;1.90;;;;;;;15.00;41.30;99916.00;25121;1313;3054759;-60
2022/09/03 04:06:59;;;;;;;5.80;1.40;;;;;;;14.96;41.74;99913.63;25067;1313;3026058;-58
2022/09/03 04:09:28;;;;;;;8.30;1.90;;;;;;;14.95;41.64;99917.36;25070;1313;3049906;-59
2022/09/03 04:11:57;;;;;;;4.90;1.30;;;;;;;14.98;41.52;99913.46;25082;1313;3026246;-59
2022/09/03 04:14:26;;;;;;;3.90;1.40;;;;;;;15.05;41.15;99914.91;25066;1313;3070849;-60
2022/09/03 04:16:55;;;;;;;5.00;1.40;;;;;;;15.15;41.55;99914.35;25182;1313;3026483;-59
2022/09/03 04:19:24;;;;;;;5.90;1.80;;;;;;;15.14;41.73;99916.02;25078;1313;3050295;-58
2022/09/03 04:21:54;;;;;;;3.30;1.80;;;;;;;15.14;42.03;99910.05;25081;1313;3026561;-60
2022/09/03 04:24:23;;;;;;;4.80;1.90;;;;;;;15.16;41.50;99907.05;25111;1313;3029844;-59
2022/09/03 04:26:53;;;;;;;6.30;1.90;;;;;;;15.22;41.74;99903.45;25098;1313;3027612;-60
2022/09/03 04:29:22;;;;;;;7.60;1.80;;;;;;;15.20;41.70;99905.38;25078;1313;3070763;-61
2022/09/03 04:34:38;;;;;;;4.20;1.90;;;;;;;15.14;42.28;99911.41;25055;1315;3054531;-60
2022/09/03 04:37:08;;;;;;;8.80;1.50;;;;;;;15.16;42.28;99912.86;25118;1315;3026250;-59
2022/09/03 04:39:38;;;;;;;3.40;1.80;;;;;;;15.19;42.44;99917.97;25113;1316;3052872;-62
2022/09/03 04:42:07;;;;;;;3.40;1.70;;;;;;;15.16;42.77;99921.02;25062;1316;3026505;-59
2022/09/03 04:44:37;;;;;;;9.40;2.20;;;;;;;15.16;42.74;99923.48;25076;1315;3051157;-61
2022/09/03 04:47:06;;;;;;;8.30;1.90;;;;;;;15.20;42.98;99922.98;25115;1316;3026523;-61
2022/09/03 04:49:35;;;;;;;9.60;1.90;;;;;;;15.25;43.13;99925.45;25063;1315;3027601;-61
2022/09/03 04:52:06;;;;;;;3.30;1.80;;;;;;;15.31;42.97;99926.48;25074;1316;3026445;-61
2022/09/03 04:54:34;;;;;;;3.40;1.60;;;;;;;15.45;42.54;99924.20;25079;1315;3026721;-60
2022/09/03 04:57:03;;;;;;;4.30;1.70;;;;;;;15.53;42.54;99919.32;25080;1313;3054320;-60
2022/09/03 04:59:34;;;;;;;7.90;1.80;;;;;;;15.63;42.41;99921.61;25089;1313;3026239;-61
2022/09/03 05:02:03;;;;;;;9.00;2.10;;;;;;;15.72;42.44;99920.05;25081;1313;3026808;-59
2022/09/03 05:04:32;;;;;;;11.20;1.70;;;;;;;15.75;42.72;99923.40;25042;1313;3050413;-59
2022/09/03 05:07:01;;;;;;;6.90;1.90;;;;;;;15.81;42.39;99924.38;25078;1313;3026844;-60
2022/09/03 05:09:30;;;;;;;4.40;1.50;;;;;;;15.89;42.45;99927.70;25037;1313;3055004;-61
2022/09/03 05:11:59;;;;;;;5.90;1.80;;;;;;;15.98;42.13;99930.88;25119;1313;3026386;-60
2022/09/03 05:14:29;;;;;;;3.90;1.70;;;;;;;16.08;42.19;99930.32;25091;1313;3052617;-60
2022/09/03 05:16:58;;;;;;;5.70;1.80;;;;;;;16.16;42.03;99930.03;25078;1313;3026939;-59
2022/09/03 05:19:28;;;;;;;5.30;1.90;;;;;;;16.29;41.36;99926.39;25105;1313;3058309;-61
2022/09/03 05:21:57;;;;;;;8.90;2.20;;;;;;;16.26;41.53;99919.70;25016;1313;3026978;-62
2022/09/03 05:24:25;;;;;;;8.30;1.80;;;;;;;16.31;41.46;99917.73;25172;1313;3052617;-59
2022/09/03 05:26:55;;;;;;;5.00;1.70;;;;;;;16.34;41.11;99919.27;25034;1313;3026608;-60
2022/09/03 05:29:24;;;;;;;4.80;1.60;;;;;;;16.41;41.10;99924.60;25125;1313;3052190;-61
2022/09/03 05:31:54;;;;;;;10.00;1.80;;;;;;;16.51;40.74;99925.58;25136;1313;3026607;-61
2022/09/03 05:34:23;;;;;;;8.90;1.60;;;;;;;16.54;40.92;99927.81;25084;1313;3026558;-62
2022/09/03 05:36:55;;;;;;;4.90;1.60;;;;;;;16.63;40.89;99929.08;25141;1313;3050544;-61
2022/09/03 05:39:24;;;;;;;8.20;2.00;;;;;;;16.73;40.37;99921.77;25098;1313;3028988;-60
2022/09/03 05:41:53;;;;;;;4.80;1.40;;;;;;;16.88;40.25;99910.15;25140;1316;3028229;-61
2022/09/03 05:44:22;;;;;;;6.30;1.30;;;;;;;17.08;39.92;99903.96;25070;1316;3053841;-61
2022/09/03 05:46:52;;;;;;;5.00;1.40;;;;;;;17.25;39.65;99895.34;25099;1316;3026826;-61
2022/09/03 05:49:21;;;;;;;6.20;1.80;;;;;;;17.39;39.17;99895.91;25044;1315;3051038;-61
2022/09/03 05:51:50;;;;;;;4.10;1.40;;;;;;;17.47;39.19;99896.54;25113;1316;3027761;-60
2022/09/03 05:54:19;;;;;;;5.90;1.70;;;;;;;17.51;39.19;99892.83;25046;1316;3071027;-62
2022/09/03 05:56:48;;;;;;;6.00;1.60;;;;;;;17.64;38.45;99896.90;25109;1313;3027129;-60
2022/09/03 05:59:18;;;;;;;3.80;1.40;;;;;;;17.79;38.14;99896.23;25133;1313;3053125;-61
2022/09/03 06:01:48;;;;;;;9.10;1.60;;;;;;;17.89;37.37;99895.52;25023;1313;3027000;-59
2022/09/03 06:04:17;;;;;;;4.50;1.30;;;;;;;17.94;37.37;99890.51;25123;1313;3026447;-60
2022/09/03 06:06:47;;;;;;;6.20;1.20;;;;;;;18.00;37.17;99890.02;25045;1313;3026475;-60
2022/09/03 06:09:20;;;;;;;8.30;2.00;;;;;;;18.10;36.89;99889.40;25054;1313;3026365;-60
2022/09/03 06:11:49;;;;;;;3.60;1.80;;;;;;;18.20;36.25;99889.71;25067;1313;3026515;-60
2022/09/03 06:14:19;;;;;;;4.60;1.50;;;;;;;18.21;36.33;99881.12;25049;1313;3026799;-61
2022/09/03 06:16:48;;;;;;;11.50;1.40;;;;;;;18.19;36.98;99874.25;25106;1313;3025967;-61
2022/09/03 06:19:18;;;;;;;3.60;1.20;;;;;;;18.27;36.24;99880.64;25153;1313;3027351;-61
2022/09/03 06:21:47;;;;;;;3.20;1.20;;;;;;;18.34;36.32;99880.04;25079;1313;3026592;-61
2022/09/03 06:24:22;;;;;;;8.60;1.40;;;;;;;18.40;36.60;99885.13;25147;1313;3026586;-59
2022/09/03 06:26:53;;;;;;;6.00;1.40;;;;;;;18.52;36.24;99882.70;25140;1316;3053988;-59
2022/09/03 06:29:22;;;;;;;8.00;1.50;;;;;;;18.49;36.17;99886.73;25070;1316;3026651;-60
2022/09/03 06:31:51;;;;;;;4.40;1.20;;;;;;;18.49;35.62;99886.54;25056;1316;3026687;-60
2022/09/03 06:34:21;;;;;;;8.00;1.60;;;;;;;18.49;35.87;99878.55;25058;1313;3051142;-62
2022/09/03 06:36:51;;;;;;;9.90;1.40;;;;;;;18.51;36.39;99875.17;25142;1316;3026783;-61
2022/09/03 06:39:20;;;;;;;10.20;1.60;;;;;;;18.53;36.43;99871.30;25114;1313;3026848;-59
2022/09/03 06:41:50;;;;;;;9.80;1.50;;;;;;;18.58;36.20;99863.43;25098;1313;3027034;-59
2022/09/03 06:44:26;;;;;;;3.90;1.00;;;;;;;18.66;35.77;99860.77;25028;1316;3069566;-61
2022/09/03 06:47:00;;;;;;;7.20;1.30;;;;;;;18.74;35.87;99859.70;25063;1313;3026430;-60
2022/09/03 06:49:30;;;;;;;9.80;1.50;;;;;;;18.81;35.37;99863.10;25213;1313;3026867;-61
2022/09/03 06:51:59;;;;;;;7.10;1.40;;;;;;;18.79;35.51;99856.40;25166;1315;3026904;-59
2022/09/03 06:54:28;;;;;;;6.90;1.40;;;;;;;18.79;35.18;99850.75;25111;1316;3026555;-62
2022/09/03 06:56:57;;;;;;;5.40;1.60;;;;;;;18.86;34.99;99854.95;25098;1313;3052727;-61
2022/09/03 06:59:27;;;;;;;9.50;1.20;;;;;;;18.90;34.64;99845.51;25092;1313;3026625;-61
2022/09/03 07:01:57;;;;;;;7.40;1.20;;;;;;;19.00;34.53;99841.77;25071;1315;3047759;-61
2022/09/03 07:04:33;;;;;;;7.00;1.30;;;;;;;19.13;34.08;99841.66;25059;1313;3053795;-61
2022/09/03 07:07:02;;;;;;;6.30;1.00;;;;;;;19.12;34.28;99841.95;25083;1313;3026543;-62
2022/09/03 07:09:35;;;;;;;18.30;1.60;;;;;;;19.17;34.39;99832.64;25121;1316;3026986;-61
2022/09/03 07:12:04;;;;;;;11.50;1.40;;;;;;;19.19;33.88;99833.50;25067;1315;3026354;-61
2022/09/03 07:14:33;;;;;;;1.90;1.10;;;;;;;19.21;34.08;99833.38;25093;1316;3026752;-61
2022/09/03 07:17:03;;;;;;;7.20;1.30;;;;;;;19.27;34.13;99831.88;25125;1313;3029586;-60
2022/09/03 07:19:32;;;;;;;5.10;1.30;;;;;;;19.30;33.67;99836.61;25069;1313;3051820;-60
2022/09/03 07:22:01;;;;;;;8.90;1.70;;;;;;;19.25;34.39;99839.34;25075;1313;3027338;-59
2022/09/03 07:24:31;;;;;;;6.80;1.00;;;;;;;19.25;34.16;99835.77;25060;1316;3026692;-62
2022/09/03 07:27:00;;;;;;;8.90;1.10;;;;;;;19.24;34.01;99833.05;25088;1313;3028045;-61
2022/09/03 07:29:30;;;;;;;17.30;1.40;;;;;;;19.32;33.51;99829.73;25115;1313;3053564;-60
2022/09/03 07:31:59;;;;;;;7.00;1.20;;;;;;;19.39;33.27;99822.27;25063;1313;3027106;-62
2022/09/03 07:34:28;;;;;;;7.60;0.90;;;;;;;19.37;33.09;99822.11;25089;1313;3051417;-61
2022/09/03 07:36:58;;;;;;;5.40;1.10;;;;;;;19.40;32.99;99815.77;25150;1316;3027275;-61
2022/09/03 07:39:27;;;;;;;4.50;1.30;;;;;;;19.44;33.38;99808.50;25067;1313;3026180;-60
2022/09/03 07:41:58;;;;;;;3.00;1.10;;;;;;;19.43;33.31;99810.23;25102;1316;3052058;-62
2022/09/03 07:44:28;;;;;;;3.70;0.90;;;;;;;19.56;33.20;99802.42;25103;1316;3027197;-61
2022/09/03 07:46:57;;;;;;;4.80;1.20;;;;;;;19.69;32.65;99799.48;25081;1316;3026316;-61
2022/09/03 07:49:26;;;;;;;5.20;1.30;;;;;;;19.79;32.63;99795.12;25093;1316;3026662;-60
2022/09/03 07:51:55;;;;;;;2.60;1.00;;;;;;;19.96;32.38;99795.23;25090;1313;3055453;-60
2022/09/03 07:54:26;;;;;;;12.10;1.20;;;;;;;20.10;32.60;99790.97;25102;1313;3026234;-57
2022/09/03 07:56:55;;;;;;;8.40;1.60;;;;;;;20.27;32.24;99790.41;25031;1313;3053956;-60
2022/09/03 07:59:25;;;;;;;7.50;1.20;;;;;;;20.41;32.11;99785.52;25040;1313;3026568;-60
2022/09/03 08:01:54;;;;;;;3.50;1.10;;;;;;;20.63;32.10;99784.62;25094;1313;3026957;-59
2022/09/03 08:04:23;;;;;;;7.00;0.90;;;;;;;20.83;31.95;99781.31;25045;1313;3051721;-60
2022/09/03 08:06:54;;;;;;;4.30;0.90;;;;;;;21.07;31.06;99779.69;25114;1313;3026748;-60
2022/09/03 08:09:26;;;;;;;6.30;1.50;;;;;;;21.29;30.54;99772.20;25057;1313;3056662;-62
2022/09/03 08:11:56;;;;;;;5.50;1.00;;;;;;;21.36;30.28;99768.89;25063;1316;3026688;-61
2022/09/03 08:14:25;;;;;;;2.80;1.00;;;;;;;21.40;29.95;99772.45;25048;1315;3026864;-60
2022/09/03 08:16:58;;;;;;;2.90;0.80;;;;;;;21.51;29.91;99769.36;25060;1315;3057882;-61
2022/09/03 08:19:28;;;;;;;3.70;1.20;;;;;;;21.70;29.98;99768.58;25088;1316;3026976;-60
2022/09/03 08:21:57;;;;;;;3.00;0.90;;;;;;;21.92;29.65;99764.48;25012;1316;3026617;-60
2022/09/03 08:24:26;;;;;;;4.20;1.10;;;;;;;22.06;28.84;99758.63;25099;1316;3055308;-62
2022/09/03 08:26:55;;;;;;;2.40;1.00;;;;;;;22.20;28.92;99754.70;25055;1315;3030330;-62
2022/09/03 08:29:25;;;;;;;4.10;1.20;;;;;;;22.31;28.37;99754.79;25063;1316;3051669;-60
2022/09/03 08:31:54;;;;;;;3.10;1.00;;;;;;;22.36;28.64;99755.14;25038;1316;3026505;-61
2022/09/03 08:34:23;;;;;;;5.30;1.10;;;;;;;22.42;28.72;99752.73;25046;1316;3028238;-60
2022/09/03 08:36:53;;;;;;;3.80;1.00;;;;;;;22.50;28.73;99755.23;25066;1316;3055008;-60
2022/09/03 08:39:22;;;;;;;3.10;1.20;;;;;;;22.74;28.21;99745.57;25080;1316;3026762;-59
2022/09/03 08:42:00;;;;;;;5.20;1.20;;;;;;;22.81;27.99;99740.89;25047;1315;3026101;-61
2022/09/03 08:44:32;;;;;;;10.00;1.10;;;;;;;22.90;27.90;99740.42;25054;1316;3055792;-61
2022/09/03 08:47:04;;;;;;;2.70;1.30;;;;;;;22.95;27.96;99735.06;25044;1316;3026965;-59
2022/09/03 08:49:34;;;;;;;6.80;1.00;;;;;;;23.04;27.86;99732.56;25033;1315;3026281;-62
2022/09/03 08:52:06;;;;;;;3.30;1.00;;;;;;;23.15;28.09;99731.35;25041;1316;3026480;-60
2022/09/03 08:54:35;;;;;;;2.50;0.70;;;;;;;23.19;27.96;99721.60;25111;1316;3026406;-62
2022/09/03 08:57:04;;;;;;;8.30;1.20;;;;;;;23.24;28.02;99723.37;25002;1315;3028629;-59
2022/09/03 08:59:34;;;;;;;7.50;1.00;;;;;;;23.25;26.95;99717.73;25083;1316;3054869;-61
2022/09/03 09:02:28;;;;;;;8.50;1.50;;;;;;;23.37;26.46;99710.36;25023;1316;3026775;-62
2022/09/03 09:05:22;;;;;;;8.40;1.50;;;;;;;23.42;25.51;99714.92;25048;1316;3049955;-61
2022/09/03 09:08:04;;;;;;;4.70;1.20;;;;;;;23.50;25.25;99715.89;25091;1316;3053739;-61
2022/09/03 09:11:00;;;;;;;6.10;1.00;;;;;;;23.56;24.93;99716.11;25062;1316;3053983;-60
2022/09/03 09:13:48;;;;;;;6.40;1.20;;;;;;;23.60;25.33;99705.86;25042;1315;3070006;-60
2022/09/03 09:16:21;;;;;;;2.90;1.10;;;;;;;23.60;25.28;99706.08;25130;1316;3051794;-60
2022/09/03 09:19:02;;;;;;;6.10;1.00;;;;;;;23.74;25.30;99703.05;25083;1315;3026306;-60
2022/09/03 09:21:53;;;;;;;5.40;1.30;;;;;;;23.97;25.35;99703.02;24996;1318;3054850;-61
2022/09/03 09:24:25;;;;;;;8.20;1.40;;;;;;;24.04;25.56;99697.06;25024;1321;3057736;-62
2022/09/03 09:26:58;;;;;;;2.60;1.20;;;;;;;24.24;24.94;99698.36;25065;1316;3026387;-62
2022/09/03 09:29:34;;;;;;;9.00;1.60;;;;;;;24.41;24.89;99687.83;25097;1316;3026548;-62
2022/09/03 09:32:04;;;;;;;3.00;1.10;;;;;;;24.39;24.95;99691.80;25015;1318;3051561;-60
2022/09/03 09:34:36;;;;;;;4.90;1.10;;;;;;;24.36;24.90;99697.55;25027;1315;3027037;-60
2022/09/03 09:37:13;;;;;;;6.00;0.90;;;;;;;24.35;24.63;99694.61;25105;1316;3026997;-62
2022/09/03 09:39:54;;;;;;;7.40;1.00;;;;;;;24.19;24.61;99691.54;25053;1316;3054542;-58
2022/09/03 09:42:23;;;;;;;5.30;1.10;;;;;;;23.97;24.92;99692.42;25037;1316;3052466;-61
2022/09/03 09:44:52;;;;;;;1.40;0.90;;;;;;;24.27;24.53;99699.20;25129;1316;3026242;-60
2022/09/03 09:47:27;;;;;;;5.40;1.00;;;;;;;24.46;23.97;99693.48;25126;1309;3026968;-59
2022/09/03 09:49:57;;;;;;;5.20;1.00;;;;;;;24.56;24.56;99687.92;25175;1310;3053319;-62
2022/09/03 09:52:28;;;;;;;4.50;1.10;;;;;;;24.66;24.24;99690.13;25996;1309;3026379;-60
2022/09/03 09:55:18;;;;;;;3.30;1.20;;;;;;;24.63;24.14;99697.23;26018;1309;3026394;-60
2022/09/03 09:57:47;;;;;;;7.00;1.10;;;;;;;24.72;24.53;99695.73;25448;1309;3049103;-62
2022/09/03 10:00:15;;;;;;;7.00;1.10;;;;;;;24.87;24.88;99702.39;25231;1309;4767184;-60
2022/09/03 10:02:53;;;;;;;5.30;1.30;;;;;;;25.20;24.92;99702.07;25249;1309;3050531;-60
2022/09/03 10:05:26;;;;;;;8.40;1.20;;;;;;;25.38;23.56;99702.95;25226;1312;3054166;-60
2022/09/03 10:07:58;;;;;;;4.00;1.30;;;;;;;25.22;24.17;99703.33;25269;1309;3051647;-60
2022/09/03 10:10:42;;;;;;;6.80;1.20;;;;;;;25.33;24.19;99699.77;25202;1309;3068580;-60
2022/09/03 10:13:14;;;;;;;5.60;1.10;;;;;;;25.28;23.99;99703.27;25192;1310;3051397;-62
2022/09/03 10:16:04;;;;;;;4.80;1.10;;;;;;;25.12;24.75;99701.53;25123;1309;3026617;-60
2022/09/03 10:18:43;;;;;;;5.60;1.20;;;;;;;25.08;25.01;99695.09;25191;1309;3054682;-61
2022/09/03 10:21:23;;;;;;;6.40;1.10;;;;;;;25.05;24.58;99693.98;25136;1309;3056951;-60
2022/09/03 10:24:18;;;;;;;6.90;1.10;;;;;;;24.99;24.92;99694.11;25169;1309;3052438;-60
2022/09/03 10:26:47;;;;;;;4.80;1.10;;;;;;;25.09;24.88;99689.16;25159;1309;3055872;-60
2022/09/03 10:29:21;;;;;;;4.70;1.20;;;;;;;25.18;24.59;99688.87;25125;1309;3026526;-63
2022/09/03 10:32:10;;;;;;;1.40;0.90;;;;;;;25.07;25.29;99690.70;25130;1312;3026934;-60
2022/09/03 10:34:58;;;;;;;2.70;1.20;;;;;;;24.88;25.36;99681.66;25143;1309;3051947;-63
2022/09/03 10:37:37;;;;;;;7.10;1.30;;;;;;;24.88;24.89;99679.48;25193;1309;3054925;-60
2022/09/03 10:40:29;;;;;;;5.00;1.20;;;;;;;24.98;24.67;99678.27;25235;1312;3052278;-60
2022/09/03 10:43:17;;;;;;;2.00;1.30;;;;;;;25.13;24.16;99675.45;25185;1309;3055876;-61
2022/09/03 10:46:04;;;;;;;3.50;1.20;;;;;;;25.29;23.93;99668.55;25089;1309;3052782;-61
2022/09/03 10:48:37;;;;;;;4.30;1.00;;;;;;;25.43;23.50;99665.09;25158;1309;3053487;-61
2022/09/03 10:51:19;;;;;;;1.60;0.80;;;;;;;25.45;23.22;99660.73;25169;1310;3026618;-61
2022/09/03 10:54:24;;;;;;;2.10;0.80;;;;;;;25.33;23.29;99660.98;25154;1309;3069587;-59
2022/09/03 10:57:06;;;;;;;;;;;;;;;25.24;23.66;99661.64;25190;1309;3052501;-64
2022/09/03 10:59:50;;;;;;;4.80;1.00;;;;;;;25.08;23.77;99657.80;25200;1309;3052369;-61
2022/09/03 11:02:34;;;;;;;6.20;1.20;;;;;;;25.20;23.83;99661.08;25187;1310;3055233;-60
2022/09/03 11:05:09;;;;;;;9.80;1.20;;;;;;;25.27;23.82;99653.87;25196;1310;3057461;-61
2022/09/03 11:07:42;;;;;;;6.80;1.30;;;;;;;25.41;23.94;99647.47;25222;1309;3049981;-62
2022/09/03 11:10:15;;;;;;;5.30;1.30;;;;;;;25.56;23.56;99637.95;25151;1309;3027244;-60
2022/09/03 11:13:09;;;;;;;3.10;1.30;;;;;;;25.63;23.47;99630.98;25138;1309;3026405;-61
2022/09/03 11:15:58;;;;;;;7.10;1.10;;;;;;;25.62;24.24;99628.46;25129;1309;3070510;-60
2022/09/03 11:18:33;;;;;;;10.20;1.30;;;;;;;25.57;23.67;99625.84;25217;1310;3052001;-61
2022/09/03 11:22:33;;;;;;;8.70;1.50;;;;;;;25.58;23.79;99614.79;31391;1320;3026539;-61
2022/09/03 11:25:04;;;;;;;4.70;1.50;;;;;;;25.90;23.51;99611.02;24825;1321;3026549;-59
2022/09/03 11:27:52;;;;;;;5.90;1.50;;;;;;;26.10;23.34;99608.36;24842;1321;3026729;-59
2022/09/03 11:30:23;;;;;;;6.30;1.30;;;;;;;26.13;23.46;99609.35;24851;1321;3058904;-60
2022/09/03 11:33:01;;;;;;;5.80;1.20;;;;;;;26.10;23.25;99606.55;24849;1321;3026819;-60
2022/09/03 11:35:32;;;;;;;5.20;1.20;;;;;;;26.22;22.62;99607.07;24242;1318;4459026;-61
2022/09/03 11:38:07;;;;;;;8.10;1.10;;;;;;;26.38;22.33;99612.69;24976;1317;3055512;-60
2022/09/03 11:40:38;;;;;;;7.40;1.50;;;;;;;26.63;21.81;99610.27;24972;1318;3049407;-59
2022/09/03 11:43:23;;;;;;;2.60;1.20;;;;;;;26.79;21.95;99611.70;25018;1318;3026654;-60
2022/09/03 11:46:04;;;;;;;5.20;1.30;;;;;;;26.95;21.67;99613.20;25023;1317;3052811;-61
2022/09/03 11:48:36;;;;;;;7.80;1.40;;;;;;;26.82;21.94;99609.58;24962;1318;3070986;-62
2022/09/03 11:51:28;;;;;;;7.80;1.30;;;;;;;26.70;22.00;99603.11;25017;1318;3026425;-61
2022/09/03 11:54:03;;;;;;;7.50;1.50;;;;;;;26.52;22.42;99604.86;25032;1317;3052378;-60